Time;durP1;ratioP1;P1;durP2;ratioP2;P2;SDS_P1;SDS_P2;PMS_P1;PMS_P2;Temp;Humidity;BMP_temperature;BMP_pressure;BME280_temperature;BME280_humidity;BME280_pressure;Samples;Min_cycle;Max_cycle;Signal;HPM_P1;HPM_P2
2023/11/15 00:03:18;;;;;;;17.85;7.15;;;;;;;8.10;100.00;99283.50;10404427;28;20041;-79
2023/11/15 00:08:21;;;;;;;17.90;6.85;;;;;;;7.93;100.00;99297.50;10408820;28;20052;-79
2023/11/15 00:13:25;;;;;;;16.42;6.05;;;;;;;8.07;100.00;99315.03;10413012;28;20049;-79
2023/11/15 00:18:29;;;;;;;18.60;5.90;;;;;;;8.52;100.00;99320.81;10397762;28;20050;-78
2023/11/15 00:23:34;;;;;;;9.60;5.10;;;;;;;8.24;100.00;99330.41;10389223;28;20063;-79
2023/11/15 00:28:39;;;;;;;11.32;4.00;;;;;;;8.26;100.00;99328.47;10397659;28;20056;-78
2023/11/15 00:33:43;;;;;;;12.52;3.85;;;;;;;7.99;100.00;99346.94;10415184;28;20049;-78
2023/11/15 00:38:46;;;;;;;8.75;3.00;;;;;;;8.24;100.00;99359.00;10398290;28;20136;-78
2023/11/15 00:43:49;;;;;;;9.60;2.95;;;;;;;7.86;100.00;99373.88;10408257;28;20041;-78
2023/11/15 00:48:54;;;;;;;8.75;3.15;;;;;;;8.16;100.00;99365.03;10378728;28;20045;-78
2023/11/15 00:53:56;;;;;;;5.35;2.58;;;;;;;8.03;100.00;99385.78;10414913;28;20056;-78
2023/11/15 00:58:59;;;;;;;7.90;1.63;;;;;;;7.99;100.00;99389.72;10403769;28;20053;-78
2023/11/15 01:04:05;;;;;;;8.07;1.92;;;;;;;7.59;100.00;99404.63;10403793;28;20262;-78
2023/11/15 01:09:08;;;;;;;6.15;1.63;;;;;;;7.97;100.00;99411.22;10398277;28;20053;-78
2023/11/15 01:14:12;;;;;;;7.95;1.85;;;;;;;7.65;100.00;99417.50;10384431;28;20049;-77
2023/11/15 01:19:16;;;;;;;6.53;2.00;;;;;;;7.67;100.00;99450.28;10401660;28;20045;-78
2023/11/15 01:24:19;;;;;;;5.93;1.98;;;;;;;7.71;100.00;99454.41;10383239;28;20049;-77
2023/11/15 01:29:22;;;;;;;5.75;1.65;;;;;;;7.53;100.00;99452.41;10416048;28;20057;-77
2023/11/15 01:34:26;;;;;;;4.43;1.63;;;;;;;8.11;100.00;99468.88;10392674;28;20048;-78
2023/11/15 01:39:31;;;;;;;7.47;1.60;;;;;;;7.64;100.00;99485.28;10404207;28;20082;-78
2023/11/15 01:44:33;;;;;;;6.43;1.10;;;;;;;7.90;100.00;99498.31;10397354;28;20500;-79
2023/11/15 01:49:38;;;;;;;8.80;1.25;;;;;;;7.59;100.00;99494.66;10407094;28;20061;-77
2023/11/15 01:54:41;;;;;;;4.45;1.13;;;;;;;7.66;100.00;99506.56;10389003;28;20057;-78
2023/11/15 01:59:44;;;;;;;6.22;1.00;;;;;;;7.63;100.00;99504.97;10390288;28;20679;-79
2023/11/15 02:04:48;;;;;;;3.70;0.93;;;;;;;7.71;100.00;99521.22;10402069;28;20049;-78
2023/11/15 02:09:51;;;;;;;6.00;1.25;;;;;;;7.94;100.00;99535.34;10399374;28;20136;-79
2023/11/15 02:14:54;;;;;;;7.60;1.25;;;;;;;7.76;100.00;99544.03;10398712;28;20142;-78
2023/11/15 02:19:58;;;;;;;4.43;1.50;;;;;;;7.79;100.00;99551.81;10396666;28;20041;-79
2023/11/15 02:25:03;;;;;;;5.88;1.75;;;;;;;7.83;100.00;99550.59;10398541;28;20512;-78
2023/11/15 02:30:07;;;;;;;9.43;3.00;;;;;;;7.99;100.00;99566.22;10401992;28;20041;-78
2023/11/15 02:35:10;;;;;;;6.97;2.00;;;;;;;7.78;100.00;99568.84;10407717;28;20069;-78
2023/11/15 02:40:15;;;;;;;8.00;2.25;;;;;;;7.99;100.00;99572.41;10407878;28;20064;-78
2023/11/15 02:45:18;;;;;;;5.90;1.70;;;;;;;8.05;100.00;99576.41;10405027;28;20056;-78
2023/11/15 02:50:21;;;;;;;8.98;2.50;;;;;;;8.20;100.00;99584.97;10393454;28;20049;-77
2023/11/15 02:55:26;;;;;;;10.70;2.05;;;;;;;8.16;100.00;99587.91;10432730;28;20041;-76
2023/11/15 03:00:29;;;;;;;11.85;2.50;;;;;;;8.08;100.00;99590.34;10414081;28;20418;-79
2023/11/15 03:05:32;;;;;;;10.15;2.35;;;;;;;8.15;100.00;99593.41;10402637;28;20065;-76
2023/11/15 03:10:37;;;;;;;10.52;2.80;;;;;;;7.92;100.00;99595.28;10414282;28;20053;-77
2023/11/15 03:15:40;;;;;;;7.72;2.65;;;;;;;8.00;100.00;99600.84;10393334;28;20045;-78
2023/11/15 03:20:43;;;;;;;11.73;3.13;;;;;;;8.18;100.00;99606.50;10393884;28;20099;-77
2023/11/15 03:25:50;;;;;;;9.18;3.17;;;;;;;7.94;100.00;99615.56;10390880;28;20084;-78
2023/11/15 03:30:53;;;;;;;7.32;2.50;;;;;;;8.15;100.00;99628.16;10387580;28;21197;-78
2023/11/15 03:35:56;;;;;;;9.43;2.90;;;;;;;8.22;100.00;99633.84;10389196;28;20429;-78
2023/11/15 03:41:00;;;;;;;11.63;3.75;;;;;;;8.23;100.00;99638.22;10403583;28;20043;-77
2023/11/15 03:46:04;;;;;;;13.60;3.42;;;;;;;7.95;100.00;99648.50;10428967;28;20053;-78
2023/11/15 03:51:07;;;;;;;9.35;3.13;;;;;;;7.81;100.00;99656.81;10438475;28;21193;-77
2023/11/15 03:56:11;;;;;;;10.70;3.38;;;;;;;8.24;100.00;99656.81;10449537;28;20071;-77
2023/11/15 04:01:14;;;;;;;7.85;2.88;;;;;;;8.13;100.00;99664.88;10440525;28;20049;-77
2023/11/15 04:06:17;;;;;;;10.27;2.70;;;;;;;8.02;100.00;99673.78;10442213;28;20055;-77
2023/11/15 04:11:22;;;;;;;15.35;2.97;;;;;;;7.97;100.00;99673.31;10438792;28;20037;-77
2023/11/15 04:16:25;;;;;;;11.93;3.05;;;;;;;8.12;100.00;99682.78;10438998;28;20140;-77
2023/11/15 04:21:29;;;;;;;12.43;3.60;;;;;;;8.08;100.00;99689.31;10438612;28;20116;-77
2023/11/15 04:26:33;;;;;;;10.07;3.35;;;;;;;8.05;100.00;99686.91;10437749;28;20063;-77
2023/11/15 04:31:37;;;;;;;12.02;3.70;;;;;;;8.33;100.00;99704.22;10436040;28;20072;-78
2023/11/15 04:36:40;;;;;;;13.70;4.10;;;;;;;8.14;100.00;99714.72;10433368;28;20756;-78
2023/11/15 04:41:44;;;;;;;20.30;4.88;;;;;;;8.03;100.00;99723.63;10428033;28;20050;-78
2023/11/15 04:46:48;;;;;;;11.93;3.95;;;;;;;7.87;100.00;99732.06;10428550;28;20156;-77
2023/11/15 04:51:51;;;;;;;14.80;3.47;;;;;;;8.11;100.00;99744.41;10434989;28;20056;-77
2023/11/15 04:56:55;;;;;;;12.38;3.65;;;;;;;7.86;100.00;99754.41;10436079;28;20055;-77
2023/11/15 05:01:58;;;;;;;13.85;5.03;;;;;;;7.72;100.00;99747.47;10461479;28;20045;-77
2023/11/15 05:07:01;;;;;;;14.98;4.90;;;;;;;8.07;100.00;99742.97;10444441;28;20056;-77
2023/11/15 05:12:07;;;;;;;17.65;4.60;;;;;;;7.85;100.00;99752.72;10454051;28;20056;-77
2023/11/15 05:17:10;;;;;;;19.95;4.70;;;;;;;7.95;100.00;99750.13;10426848;28;20063;-77
2023/11/15 05:22:13;;;;;;;15.88;5.43;;;;;;;8.01;100.00;99764.84;10448668;28;20037;-78
2023/11/15 05:27:17;;;;;;;14.45;6.10;;;;;;;8.09;100.00;99768.63;10454666;28;20042;-77
2023/11/15 05:32:20;;;;;;;17.52;4.80;;;;;;;8.03;100.00;99784.28;10425606;28;20075;-78
2023/11/15 05:37:23;;;;;;;24.92;6.47;;;;;;;8.15;100.00;99794.88;10447419;28;20061;-78
2023/11/15 05:42:28;;;;;;;13.18;4.45;;;;;;;8.07;100.00;99799.13;10435299;28;20135;-77
2023/11/15 05:47:31;;;;;;;13.00;6.00;;;;;;;8.20;100.00;99805.22;10415279;28;20048;-78
2023/11/15 05:52:34;;;;;;;15.40;5.38;;;;;;;8.34;100.00;99804.94;10410797;28;20130;-77
2023/11/15 05:57:38;;;;;;;15.52;4.22;;;;;;;8.06;100.00;99814.31;10400925;28;20052;-78
2023/11/15 06:02:41;;;;;;;14.23;4.40;;;;;;;8.16;100.00;99817.13;10401722;28;20052;-78
2023/11/15 06:07:45;;;;;;;11.10;3.58;;;;;;;8.05;100.00;99817.97;10413666;28;20053;-78
2023/11/15 06:12:51;;;;;;;12.40;4.97;;;;;;;7.75;100.00;99829.25;10388035;28;20393;-78
2023/11/15 06:17:54;;;;;;;14.55;3.75;;;;;;;7.99;100.00;99826.50;10398415;28;20052;-79
2023/11/15 06:22:57;;;;;;;12.57;3.47;;;;;;;8.19;100.00;99827.56;10401519;28;20504;-78
2023/11/15 06:28:03;;;;;;;8.50;3.10;;;;;;;8.00;100.00;99830.00;10403246;28;20500;-77
2023/11/15 06:33:05;;;;;;;12.07;3.97;;;;;;;8.02;100.00;99836.94;10408069;28;20060;-78
2023/11/15 06:38:09;;;;;;;15.43;4.30;;;;;;;7.79;100.00;99833.41;10405736;28;20045;-77
2023/11/15 06:43:14;;;;;;;14.85;4.68;;;;;;;7.81;100.00;99846.66;10399007;28;20144;-79
2023/11/15 06:48:18;;;;;;;14.85;5.20;;;;;;;7.67;100.00;99848.56;10398712;28;20045;-78
2023/11/15 06:53:22;;;;;;;9.70;3.92;;;;;;;7.56;100.00;99858.41;10400940;28;20040;-78
2023/11/15 06:58:26;;;;;;;14.70;5.15;;;;;;;7.87;100.00;99876.47;10397727;28;20915;-79
2023/11/15 07:03:29;;;;;;;17.27;6.97;;;;;;;7.95;100.00;99879.38;10400347;28;20052;-78
2023/11/15 07:08:33;;;;;;;14.88;6.22;;;;;;;7.78;100.00;99885.16;10395477;28;20057;-79
2023/11/15 07:13:38;;;;;;;20.98;7.53;;;;;;;7.88;100.00;99901.38;10395727;28;20060;-77
2023/11/15 07:18:40;;;;;;;17.98;8.02;;;;;;;8.05;100.00;99911.59;10397716;28;20565;-79
2023/11/15 07:23:43;;;;;;;18.83;8.48;;;;;;;8.01;100.00;99909.28;10401153;28;20663;-78
2023/11/15 07:28:48;;;;;;;24.58;9.77;;;;;;;7.99;100.00;99925.47;10408640;28;20165;-78
2023/11/15 07:33:52;;;;;;;21.10;8.63;;;;;;;7.83;100.00;99927.59;10427372;28;20060;-78
2023/11/15 07:38:54;;;;;;;15.32;8.63;;;;;;;8.12;100.00;99918.19;10405001;28;20203;-79
2023/11/15 07:43:59;;;;;;;14.52;7.28;;;;;;;8.04;100.00;99925.97;10436188;28;20064;-79
2023/11/15 07:49:02;;;;;;;14.43;7.50;;;;;;;8.14;100.00;99918.03;10391530;28;21165;-79
2023/11/15 07:54:05;;;;;;;9.73;5.45;;;;;;;8.14;100.00;99926.91;10397220;28;20076;-79
2023/11/15 07:59:10;;;;;;;15.00;6.82;;;;;;;8.17;100.00;99933.84;10405592;28;20137;-79
2023/11/15 08:04:14;;;;;;;13.27;6.05;;;;;;;8.29;100.00;99937.41;10402482;28;20041;-79
2023/11/15 08:09:24;;;;;;;11.98;5.85;;;;;;;7.97;100.00;99947.94;10414903;28;20144;-81
2023/11/15 08:14:31;;;;;;;10.13;6.00;;;;;;;8.06;100.00;99957.91;10411232;28;20061;-80
2023/11/15 08:19:34;;;;;;;11.20;6.10;;;;;;;8.04;100.00;99955.38;10397995;28;20045;-80
2023/11/15 08:24:39;;;;;;;11.35;6.05;;;;;;;7.91;100.00;99958.13;10424119;28;20060;-81
2023/11/15 08:29:43;;;;;;;14.00;6.03;;;;;;;7.81;100.00;99973.16;10423788;28;20060;-82
2023/11/15 08:34:46;;;;;;;12.70;4.93;;;;;;;7.46;100.00;99978.50;10423230;28;20060;-81
2023/11/15 08:39:49;;;;;;;8.75;3.53;;;;;;;7.60;100.00;99991.69;10407858;28;20067;-81
2023/11/15 08:44:54;;;;;;;7.78;3.60;;;;;;;7.45;100.00;99992.84;10409979;28;20053;-82
2023/11/15 08:49:57;;;;;;;7.38;3.22;;;;;;;7.70;100.00;99981.16;10396831;28;20052;-79
2023/11/15 08:55:00;;;;;;;6.75;2.83;;;;;;;7.46;100.00;99990.06;10414593;28;20128;-80
2023/11/15 09:00:12;;;;;;;4.75;2.30;;;;;;;7.54;100.00;100000.16;10414165;28;20059;-79
2023/11/15 09:05:19;;;;;;;3.90;2.83;;;;;;;7.62;100.00;100011.13;10406233;28;20049;-80
2023/11/15 09:10:22;;;;;;;4.78;2.50;;;;;;;7.75;100.00;100016.41;10419146;28;20056;-79
2023/11/15 09:15:30;;;;;;;4.05;2.55;;;;;;;7.61;100.00;100016.59;10415891;28;21278;-77
2023/11/15 09:20:34;;;;;;;7.57;2.83;;;;;;;8.04;100.00;100022.25;10419226;28;20055;-79
2023/11/15 09:25:39;;;;;;;4.72;2.70;;;;;;;8.08;100.00;100033.56;10415926;28;20055;-78
2023/11/15 09:30:45;;;;;;;2.22;1.45;;;;;;;7.57;100.00;100031.16;10409131;28;20053;-79
2023/11/15 09:35:48;;;;;;;4.15;2.08;;;;;;;7.49;100.00;100053.97;10414294;28;20678;-80
2023/11/15 09:47:52;;;;;;;7.68;1.98;;;;;;;7.71;100.00;100050.56;10429869;28;20711;-80
2023/11/15 09:52:56;;;;;;;8.13;2.30;;;;;;;7.98;100.00;100062.84;10419728;28;20824;-78
2023/11/15 09:57:59;;;;;;;3.38;1.50;;;;;;;7.94;100.00;100058.69;10395925;28;20056;-80
2023/11/15 10:03:04;;;;;;;3.13;1.50;;;;;;;8.15;100.00;100070.44;10417915;28;20071;-80
2023/11/15 10:08:12;;;;;;;2.85;1.05;;;;;;;7.84;100.00;100076.38;10413923;28;20052;-80
2023/11/15 10:13:18;;;;;;;1.20;1.02;;;;;;;8.03;100.00;100074.03;10416949;28;20509;-80
2023/11/15 10:18:32;;;;;;;3.35;1.58;;;;;;;8.15;100.00;100080.28;10406855;28;20045;-80
2023/11/15 10:23:35;;;;;;;3.28;1.50;;;;;;;8.45;100.00;100089.59;10397149;28;20057;-80
2023/11/15 10:28:43;;;;;;;1.85;1.35;;;;;;;8.01;100.00;100091.16;10398238;28;20531;-82
2023/11/15 10:33:53;;;;;;;2.47;1.08;;;;;;;7.84;100.00;100087.06;10398963;28;20529;-80
2023/11/15 10:38:59;;;;;;;2.50;1.42;;;;;;;7.81;100.00;100095.31;10392414;28;20057;-80
2023/11/15 10:44:07;;;;;;;2.33;1.45;;;;;;;8.05;100.00;100089.97;10397752;28;21833;-79
2023/11/15 10:49:16;;;;;;;3.10;0.90;;;;;;;7.98;100.00;100088.72;10398084;28;21594;-79
2023/11/15 10:54:19;;;;;;;1.98;1.10;;;;;;;7.92;100.00;100084.69;10392369;28;20049;-79
2023/11/15 10:59:25;;;;;;;2.70;0.80;;;;;;;8.09;100.00;100094.09;10398504;28;20413;-80
2023/11/15 11:04:31;;;;;;;2.55;0.65;;;;;;;8.52;100.00;100078.34;10403355;28;20053;-79
2023/11/15 11:09:39;;;;;;;1.27;0.68;;;;;;;8.28;100.00;100088.22;10392223;28;20446;-77
2023/11/15 11:14:45;;;;;;;2.33;0.90;;;;;;;8.32;100.00;100084.34;10402434;28;20053;-78
2023/11/15 11:19:52;;;;;;;4.85;0.38;;;;;;;8.23;100.00;100088.59;10394586;28;20040;-78
2023/11/15 11:25:21;;;;;;;1.83;0.70;;;;;;;8.33;100.00;100080.69;10388381;28;20057;-78
2023/11/15 11:30:24;;;;;;;2.40;0.63;;;;;;;8.50;100.00;100090.13;10396895;28;20152;-79
2023/11/15 11:35:34;;;;;;;0.88;0.80;;;;;;;8.12;100.00;100096.59;10392531;28;20049;-78
2023/11/15 11:40:39;;;;;;;1.63;0.38;;;;;;;7.70;100.00;100104.13;10394239;28;20461;-80
2023/11/15 11:45:48;;;;;;;4.80;0.77;;;;;;;7.97;100.00;100103.91;10400895;28;20072;-81
2023/11/15 11:51:00;;;;;;;2.15;0.90;;;;;;;7.77;100.00;100102.72;10402801;28;20134;-81
2023/11/15 11:56:07;;;;;;;1.90;0.60;;;;;;;7.79;100.00;100091.91;10414943;28;20729;-79
2023/11/15 12:01:11;;;;;;;2.72;0.73;;;;;;;7.71;100.00;100104.03;10406598;28;20567;-80
2023/11/15 12:06:17;;;;;;;1.30;1.00;;;;;;;7.69;100.00;100111.31;10379131;28;20060;-81
2023/11/15 12:11:22;;;;;;;1.75;0.90;;;;;;;7.42;100.00;100118.66;10400376;28;20045;-80
2023/11/15 12:16:27;;;;;;;2.45;0.82;;;;;;;7.50;100.00;100116.28;10407756;28;20053;-82
2023/11/15 12:21:37;;;;;;;1.05;0.63;;;;;;;7.34;100.00;100126.38;10398293;28;20136;-81
2023/11/15 12:26:42;;;;;;;1.23;0.40;;;;;;;7.25;100.00;100126.06;10409013;28;20053;-80
2023/11/15 12:31:45;;;;;;;2.38;0.55;;;;;;;7.32;100.00;100114.94;10397780;28;20049;-80
2023/11/15 12:36:50;;;;;;;1.70;0.52;;;;;;;6.98;100.00;100130.69;10392814;28;20064;-81
2023/11/15 12:41:58;;;;;;;1.00;0.65;;;;;;;7.07;100.00;100124.69;10402768;28;20142;-79
2023/11/15 12:47:01;;;;;;;0.85;0.65;;;;;;;7.33;100.00;100130.03;10391729;28;20053;-81
2023/11/15 12:52:07;;;;;;;1.80;0.55;;;;;;;7.00;100.00;100126.09;10389163;28;20100;-81
2023/11/15 12:57:13;;;;;;;1.98;0.82;;;;;;;7.43;100.00;100126.59;10402072;28;20274;-80
2023/11/15 13:02:23;;;;;;;1.38;0.73;;;;;;;7.70;100.00;100120.19;10399048;28;20079;-81
2023/11/15 13:07:27;;;;;;;2.42;1.13;;;;;;;7.68;100.00;100119.47;10398628;28;20045;-81
2023/11/15 13:12:30;;;;;;;5.88;2.17;;;;;;;7.54;100.00;100125.78;10388220;28;20420;-80
2023/11/15 13:17:33;;;;;;;6.53;2.45;;;;;;;7.90;100.00;100114.22;10394223;28;20420;-81
2023/11/15 13:22:38;;;;;;;7.15;2.92;;;;;;;8.21;100.00;100127.13;10396727;28;20059;-81
2023/11/15 13:27:41;;;;;;;8.95;4.50;;;;;;;8.50;100.00;100125.81;10396239;28;20397;-80
2023/11/15 13:32:44;;;;;;;12.50;5.38;;;;;;;8.45;100.00;100121.72;10400686;28;20723;-79
2023/11/15 13:37:48;;;;;;;14.60;5.55;;;;;;;8.55;100.00;100120.94;10407829;28;20056;-80
2023/11/15 13:42:52;;;;;;;16.35;6.03;;;;;;;8.29;100.00;100128.25;10410882;28;20049;-79
2023/11/15 13:47:56;;;;;;;21.05;8.50;;;;;;;8.57;100.00;100131.53;10401280;28;20059;-79
2023/11/15 13:53:00;;;;;;;23.55;8.18;;;;;;;8.73;100.00;100141.94;10400051;28;20073;-80
2023/11/15 13:58:03;;;;;;;18.77;6.72;;;;;;;8.65;100.00;100144.34;10397137;28;20049;-80
2023/11/15 14:03:06;;;;;;;14.07;5.80;;;;;;;8.62;100.00;100140.06;10407516;28;20061;-80
2023/11/15 14:08:11;;;;;;;14.02;6.18;;;;;;;8.51;100.00;100146.25;10428874;28;20037;-78
2023/11/15 14:13:14;;;;;;;12.55;6.13;;;;;;;8.71;100.00;100150.06;10402272;28;20053;-79
2023/11/15 14:18:18;;;;;;;19.52;6.05;;;;;;;8.54;100.00;100159.41;10394013;28;20047;-80
2023/11/15 14:23:23;;;;;;;9.82;4.78;;;;;;;8.33;100.00;100163.66;10400102;28;20142;-79
2023/11/15 14:28:26;;;;;;;17.08;5.60;;;;;;;8.52;100.00;100157.81;10406873;28;20046;-80
2023/11/15 14:33:29;;;;;;;17.17;5.93;;;;;;;8.21;100.00;100169.94;10404313;28;20046;-79
2023/11/15 14:38:33;;;;;;;15.15;5.05;;;;;;;8.23;100.00;100178.69;10410520;28;21914;-80
2023/11/15 14:43:37;;;;;;;11.68;5.32;;;;;;;8.14;100.00;100182.91;10405491;28;20052;-79
2023/11/15 14:48:40;;;;;;;10.00;4.68;;;;;;;8.37;100.00;100189.25;10395395;28;20140;-79
2023/11/15 14:53:52;;;;;;;18.13;5.70;;;;;;;8.64;100.00;100190.81;10401763;28;20061;-76
2023/11/15 14:58:55;;;;;;;13.32;5.95;;;;;;;8.43;100.00;100201.31;10402427;28;20045;-79
2023/11/15 15:04:04;;;;;;;13.43;4.97;;;;;;;8.22;100.00;100185.03;10404933;28;20050;-80
2023/11/15 15:09:09;;;;;;;18.48;5.95;;;;;;;8.13;100.00;100194.59;10404252;28;20182;-79
2023/11/15 15:14:12;;;;;;;21.30;6.63;;;;;;;8.06;100.00;100206.69;10399334;28;21610;-79
2023/11/15 15:19:15;;;;;;;15.23;6.68;;;;;;;8.09;100.00;100203.78;10399138;28;20773;-79
2023/11/15 15:24:20;;;;;;;13.15;5.47;;;;;;;8.36;100.00;100208.94;10393713;28;20105;-79
2023/11/15 15:29:23;;;;;;;28.48;6.05;;;;;;;8.46;100.00;100199.28;10393248;28;20052;-79
2023/11/15 15:34:29;;;;;;;18.20;6.78;;;;;;;8.62;100.00;100201.66;10404469;28;20335;-80
2023/11/15 15:39:34;;;;;;;17.88;6.75;;;;;;;8.61;100.00;100205.28;10445968;28;20141;-79
2023/11/15 15:44:37;;;;;;;11.70;4.47;;;;;;;8.38;100.00;100212.34;10438111;28;20056;-79
2023/11/15 15:49:44;;;;;;;21.90;8.00;;;;;;;8.32;100.00;100221.69;10438753;28;20052;-78
2023/11/15 15:54:49;;;;;;;15.40;6.07;;;;;;;7.71;100.00;100231.53;10441830;28;20045;-86
2023/11/15 15:59:52;;;;;;;21.02;6.30;;;;;;;7.77;100.00;100220.38;10445380;28;20041;-80
2023/11/15 16:04:55;;;;;;;29.70;8.45;;;;;;;7.92;100.00;100223.75;10440785;28;20104;-80
2023/11/15 16:10:01;;;;;;;21.27;7.22;;;;;;;7.83;100.00;100235.97;10437880;28;20250;-81
2023/11/15 16:15:04;;;;;;;19.77;6.40;;;;;;;7.50;100.00;100239.25;10447553;28;20041;-80
2023/11/15 16:20:10;;;;;;;13.68;5.15;;;;;;;7.64;100.00;100236.44;10469328;28;20053;-80
2023/11/15 16:25:15;;;;;;;14.60;5.63;;;;;;;7.44;100.00;100247.69;10467409;28;20061;-79
2023/11/15 16:30:19;;;;;;;7.50;3.97;;;;;;;7.14;100.00;100254.19;10464950;28;20056;-78
2023/11/15 16:35:22;;;;;;;7.70;2.65;;;;;;;7.31;100.00;100257.53;10462731;28;20151;-78
2023/11/15 16:40:26;;;;;;;4.63;2.03;;;;;;;7.21;100.00;100259.97;10481561;28;20061;-78
2023/11/15 16:45:30;;;;;;;8.65;3.00;;;;;;;7.47;100.00;100268.84;10476574;28;20048;-78
2023/11/15 16:50:33;;;;;;;7.78;2.60;;;;;;;7.17;100.00;100259.31;10470531;28;20412;-79
2023/11/15 16:55:40;;;;;;;6.28;2.90;;;;;;;7.43;100.00;100281.59;10474630;28;20037;-77
2023/11/15 17:00:45;;;;;;;9.93;3.22;;;;;;;7.43;100.00;100272.69;10465581;28;20041;-77
2023/11/15 17:05:48;;;;;;;11.52;2.85;;;;;;;7.41;100.00;100282.66;10465317;28;20046;-77
2023/11/15 17:10:52;;;;;;;6.40;2.00;;;;;;;7.30;100.00;100282.56;10452040;28;20052;-77
2023/11/15 17:15:55;;;;;;;7.82;2.13;;;;;;;7.54;100.00;100271.94;10451125;28;20033;-79
2023/11/15 17:20:58;;;;;;;8.18;2.22;;;;;;;7.45;100.00;100281.47;10461066;28;20055;-77
2023/11/15 17:26:04;;;;;;;9.02;3.03;;;;;;;7.46;100.00;100275.16;10464029;28;20040;-76
2023/11/15 17:31:08;;;;;;;11.38;3.80;;;;;;;7.57;100.00;100285.97;10463299;28;20109;-76
2023/11/15 17:36:10;;;;;;;7.93;3.53;;;;;;;7.42;100.00;100269.16;10457369;28;20048;-77
2023/11/15 17:41:15;;;;;;;17.30;4.25;;;;;;;7.40;100.00;100279.09;10452002;28;20100;-77
2023/11/15 17:46:19;;;;;;;7.95;3.47;;;;;;;7.40;100.00;100279.09;10471930;28;20051;-77
2023/11/15 17:51:21;;;;;;;10.45;3.75;;;;;;;7.34;100.00;100266.19;10483683;28;20044;-77
2023/11/15 17:56:26;;;;;;;11.43;5.32;;;;;;;7.19;100.00;100264.59;10480683;28;20568;-77
2023/11/15 18:01:32;;;;;;;8.98;4.15;;;;;;;7.15;100.00;100276.41;10469151;28;20583;-77
2023/11/15 18:06:36;;;;;;;14.63;4.78;;;;;;;7.25;100.00;100272.16;10446459;28;20102;-77
2023/11/15 18:11:40;;;;;;;6.80;4.13;;;;;;;7.00;100.00;100273.00;10453936;28;20059;-77
2023/11/15 18:16:43;;;;;;;13.35;6.13;;;;;;;7.37;100.00;100270.47;10460545;28;20116;-77
2023/11/15 18:21:46;;;;;;;12.85;3.28;;;;;;;6.93;100.00;100280.53;10463981;28;20049;-77
2023/11/15 18:26:50;;;;;;;15.20;5.45;;;;;;;7.05;100.00;100271.72;10517464;28;20043;-77
2023/11/15 18:31:54;;;;;;;14.93;5.50;;;;;;;7.06;100.00;100281.44;10510440;28;20063;-77
2023/11/15 18:36:57;;;;;;;13.88;5.03;;;;;;;7.05;100.00;100269.03;10505328;28;20046;-77
2023/11/15 18:42:01;;;;;;;15.65;3.95;;;;;;;7.06;100.00;100276.09;10522494;28;20036;-77
2023/11/15 18:47:04;;;;;;;14.65;5.63;;;;;;;6.80;100.00;100292.97;10509589;28;20046;-77
2023/11/15 18:52:11;;;;;;;8.02;3.25;;;;;;;6.96;100.00;100280.34;10528771;28;20056;-77
2023/11/15 18:57:16;;;;;;;8.27;2.42;;;;;;;6.87;100.00;100302.31;10523315;28;20033;-77
2023/11/15 19:02:19;;;;;;;13.45;3.03;;;;;;;6.91;100.00;100294.97;10531472;28;20071;-78
2023/11/15 19:07:22;;;;;;;13.38;3.25;;;;;;;6.90;100.00;100295.94;10501462;28;20043;-78
2023/11/15 19:12:28;;;;;;;8.63;3.30;;;;;;;6.71;100.00;100291.78;10494157;28;20595;-78
2023/11/15 19:17:31;;;;;;;9.73;2.83;;;;;;;7.03;100.00;100296.81;10489694;28;20136;-78
2023/11/15 19:22:34;;;;;;;12.27;2.38;;;;;;;6.78;100.00;100292.25;10485244;28;20411;-79
2023/11/15 19:27:38;;;;;;;13.68;3.70;;;;;;;6.93;100.00;100287.72;10490361;28;20044;-79
2023/11/15 19:32:41;;;;;;;13.65;3.22;;;;;;;6.73;100.00;100295.22;10495683;28;20131;-78
2023/11/15 19:37:45;;;;;;;10.57;3.22;;;;;;;7.00;100.00;100289.03;10500452;28;20048;-78
2023/11/15 19:42:50;;;;;;;11.15;2.90;;;;;;;7.03;100.00;100294.16;10500402;28;20043;-78
2023/11/15 19:47:54;;;;;;;12.43;4.22;;;;;;;7.15;100.00;100285.28;10501439;28;20037;-79
2023/11/15 19:52:58;;;;;;;12.88;4.35;;;;;;;7.02;100.00;100293.28;10503571;28;20045;-78
2023/11/15 19:58:04;;;;;;;15.10;5.47;;;;;;;7.26;100.00;100279.22;10506810;28;20047;-78
2023/11/15 20:03:09;;;;;;;15.95;4.05;;;;;;;7.02;99.77;100293.28;10502311;28;20074;-77
2023/11/15 20:08:13;;;;;;;14.52;4.10;;;;;;;6.86;100.00;100287.25;10499605;28;20059;-77
2023/11/15 20:13:18;;;;;;;20.83;6.45;;;;;;;7.15;99.81;100281.75;10507050;28;20123;-80
2023/11/15 20:18:21;;;;;;;20.75;6.22;;;;;;;7.19;100.00;100278.78;10509358;28;20048;-78
2023/11/15 20:23:24;;;;;;;15.00;5.78;;;;;;;7.10;100.00;100287.41;10505558;28;20056;-79
2023/11/15 20:28:28;;;;;;;17.17;6.43;;;;;;;7.00;100.00;100281.00;10501633;28;20128;-78
2023/11/15 20:33:43;;;;;;;15.45;7.50;;;;;;;7.09;100.00;100276.84;10500588;28;20045;-79
2023/11/15 20:38:46;;;;;;;23.13;8.30;;;;;;;7.23;100.00;100279.44;10506837;28;20053;-81
2023/11/15 20:43:51;;;;;;;17.70;7.80;;;;;;;7.21;100.00;100271.53;10509033;28;20132;-79
2023/11/15 20:48:54;;;;;;;21.10;7.85;;;;;;;7.20;100.00;100261.78;10501236;28;20049;-78
2023/11/15 20:53:57;;;;;;;25.88;8.20;;;;;;;7.12;100.00;100256.13;10501053;28;20044;-77
2023/11/15 20:59:02;;;;;;;19.02;5.82;;;;;;;6.93;100.00;100255.66;10491359;28;20045;-78
2023/11/15 21:04:07;;;;;;;14.45;6.82;;;;;;;7.19;100.00;100261.91;10483193;28;20049;-77
2023/11/15 21:09:12;;;;;;;19.40;6.25;;;;;;;7.18;100.00;100261.03;10481033;28;20071;-77
2023/11/15 21:14:16;;;;;;;15.63;6.90;;;;;;;7.25;100.00;100266.81;10486272;28;20140;-77
2023/11/15 21:19:19;;;;;;;23.35;6.32;;;;;;;7.09;100.00;100256.31;10495697;28;20131;-77
2023/11/15 21:24:22;;;;;;;10.48;4.00;;;;;;;6.96;100.00;100274.16;10487734;28;20504;-78
2023/11/15 21:29:27;;;;;;;24.35;6.18;;;;;;;6.98;100.00;100270.41;10487213;28;20059;-76
2023/11/15 21:34:30;;;;;;;21.15;6.43;;;;;;;7.06;100.00;100261.88;10485013;28;20507;-78
2023/11/15 21:39:33;;;;;;;17.27;5.22;;;;;;;7.13;100.00;100263.19;10483458;28;20049;-76
2023/11/15 21:44:38;;;;;;;23.52;6.70;;;;;;;7.54;99.68;100255.91;10495850;28;20047;-77
2023/11/15 21:49:41;;;;;;;17.25;5.22;;;;;;;7.16;100.00;100246.06;10496509;28;20060;-77
2023/11/15 21:54:44;;;;;;;11.50;5.43;;;;;;;7.23;99.96;100242.03;10493020;28;20036;-77
2023/11/15 21:59:48;;;;;;;16.85;5.32;;;;;;;7.05;100.00;100249.50;10487250;28;20666;-79
2023/11/15 22:04:52;;;;;;;19.60;8.27;;;;;;;7.13;100.00;100251.63;10492061;28;20049;-78
2023/11/15 22:09:55;;;;;;;19.33;6.82;;;;;;;6.92;100.00;100244.13;10483555;28;20071;-77
2023/11/15 22:14:59;;;;;;;17.23;5.55;;;;;;;6.96;100.00;100244.75;10476301;28;20052;-78
2023/11/15 22:20:02;;;;;;;30.70;8.25;;;;;;;7.18;100.00;100228.13;10494011;28;20048;-77
2023/11/15 22:25:06;;;;;;;20.20;6.88;;;;;;;7.17;100.00;100227.28;10489111;28;20492;-77
2023/11/15 22:30:12;;;;;;;18.67;7.32;;;;;;;7.15;100.00;100239.03;10486068;28;20098;-77
2023/11/15 22:35:15;;;;;;;15.57;5.88;;;;;;;7.28;98.47;100219.34;10485174;28;20049;-77
2023/11/15 22:40:18;;;;;;;15.52;5.00;;;;;;;7.09;99.13;100231.44;10480392;28;20100;-78
2023/11/15 22:45:23;;;;;;;18.02;6.75;;;;;;;7.10;98.82;100222.44;10491399;28;20052;-77
2023/11/15 22:50:26;;;;;;;15.20;6.57;;;;;;;7.14;98.63;100224.81;10471322;28;20504;-76
2023/11/15 22:55:29;;;;;;;10.52;5.40;;;;;;;7.19;97.18;100228.03;10474729;28;20047;-76
2023/11/15 23:00:35;;;;;;;17.60;5.93;;;;;;;7.00;99.09;100224.91;10478195;28;20056;-76
2023/11/15 23:05:40;;;;;;;13.50;7.03;;;;;;;7.41;95.71;100219.38;10477297;28;20558;-77
2023/11/15 23:10:43;;;;;;;17.15;7.00;;;;;;;7.25;96.88;100222.25;10485448;28;20060;-77
2023/11/15 23:15:48;;;;;;;17.70;5.43;;;;;;;7.16;97.15;100233.59;10478694;28;20041;-77
2023/11/15 23:20:54;;;;;;;15.85;5.72;;;;;;;7.32;95.38;100213.81;10469868;28;20040;-78
2023/11/15 23:25:57;;;;;;;10.55;3.83;;;;;;;7.02;96.93;100199.81;10482582;28;20079;-77